Details From CYHU - St Hubert
To CYKL - Schefferville
Flight Number -
Tags Generated
Created
Modified
Stats Distance 613 nm / 1,136 km
Max Altitude 0 ft / 0 m
Waypoints 3
Social Downloads 0
Likes 0
Share VATSIM

Download

Looking for another format? Having issues loading an existing format? Contact us
Advertisement - Login to hide

Notes

Generated

Route

CYHU KR CYKL

ID Type Via Altitude Latitude Longitude Leg Dist Tot Dist Heading (true) Name
O CYHU APT - 0 ft / 0 m 45.51032˚ -73.42670˚ - 0 nm - -
KR NDB - 0 ft / 0 m 54.79917˚ -66.80361˚ 612 nm 612 nm 22° / 27° SQUAW NDB
O CYKL APT - 0 ft / 0 m 54.81059˚ -66.81082˚ 0 nm 613 nm 340° / 340° -

Altitude Profile

Advertisement - Login to hide

Weather


0- 5 10 15 20 25 30 35+ Temperature / ° C

Clouds and Precipitation
Forecast for 2017-12-18 00:00 UTC. Updated an hour ago

Ground ~20,000 ft ~40,000 ft Winds

CYHU

Details ICAO CYHU (YHU)
Name St Hubert
Region Canada
Timezone America/Montreal (UTC-5.0)
Stats Elevation 90 ft / 27 m (AMSL)
Location 45.514297° -73.416351°
Runways 3
Magnetic Variation 14.498° W

METAR

CYHU 172200Z AUTO 13003KT 7SM CLR M16/M18 A3033 RMK SLP276

Decode

TAF

TAF CYHU 171738Z 1718/1818 07003KT 6SM BR FEW015 TEMPO 1718/1721 13/4SM -SN IC BR BKN005 FM172100 VRB03KT P6SM FEW030 FM180300 01005KT P6SM BKN150 FM181100 03008KT P6SM OVC050 FM181500 04005KT 2SM -SN BKN030 OVC150 RMK FCST BASED ON AUTO OBS. NXT FCST BY 180000Z

Decode

Departure Runways

ID Width Length Bearing (true) Bearing (mag) Surface Threshold Offset Overrun Length
06L 150 ft / 46 m 7,870 ft / 2,399 m 46.95° 61.45° Asphalt 1,100 ft / 335 m 0 ft / 0 m
06R 100 ft / 30 m 3,874 ft / 1,181 m 47.16° 61.66° Asphalt 0 ft / 0 m 0 ft / 0 m
10 150 ft / 46 m 2,787 ft / 849 m 83.75° 98.25° Asphalt 0 ft / 0 m 0 ft / 0 m
24L 100 ft / 30 m 3,874 ft / 1,181 m 227.16° 241.66° Asphalt 0 ft / 0 m 0 ft / 0 m
24R 150 ft / 46 m 7,870 ft / 2,399 m 226.97° 241.47° Asphalt 0 ft / 0 m 90 ft / 27 m
28 150 ft / 46 m 2,787 ft / 849 m 263.75° 278.25° Asphalt 0 ft / 0 m 0 ft / 0 m

CYKL

Details ICAO CYKL (YKL)
Name SCHEFFERVILLE
Region Canada
Timezone America/Montreal (UTC-5.0)
Stats Elevation 1,709 ft / 521 m (AMSL)
Location 54.804722° -66.804722°
Runways 1
Magnetic Variation 20.960° W

METAR

CYKL 172200Z AUTO 28015G22KT 9SM FEW038 BKN050 M18/M22 A2970 RMK SLP111

Decode

TAF

TAF CYKL 171943Z 1720/1808 32015G25KT P6SM OVC030 TEMPO 1720/1721 21/2SM -SN OVC020 FM172100 32015G25KT P6SM OVC030 TEMPO 1721/1803 5SM -SN OVC020 PROB30 1721/1803 21/2SM -SHSN FM180300 27010KT 5SM -SN OVC015 TEMPO 1803/1808 P6SM -SN OVC025 RMK FCST BASED ON AUTO OBS. NXT FCST BY 180200Z

Decode

Destination Runways

ID Width Length Bearing (true) Bearing (mag) Surface Threshold Offset Overrun Length
18 150 ft / 46 m 4,992 ft / 1,522 m 149.05° 170.01° Asphalt 0 ft / 0 m 250 ft / 76 m
36 150 ft / 46 m 4,992 ft / 1,522 m 329.06° 350.02° Asphalt 0 ft / 0 m 250 ft / 76 m